createdAt,value
2022-07-26T00:01:20.466Z,98284.00
2022-07-26T00:03:49.031Z,98275.00
2022-07-26T00:06:18.972Z,98274.00
2022-07-26T00:08:48.824Z,98284.00
2022-07-26T00:11:17.030Z,98290.00
2022-07-26T00:13:45.267Z,98296.00
2022-07-26T00:16:13.620Z,98297.00
2022-07-26T00:18:41.902Z,98293.00
2022-07-26T00:23:56.757Z,98313.00
2022-07-26T00:26:25.110Z,98315.00
2022-07-26T00:28:53.324Z,98315.00
2022-07-26T00:31:21.578Z,98319.00
2022-07-26T00:33:49.831Z,98323.00
2022-07-26T00:36:18.053Z,98319.00
2022-07-26T00:38:46.226Z,98310.00
2022-07-26T00:41:16.157Z,98298.00
2022-07-26T00:43:55.522Z,98292.00
2022-07-26T00:46:23.835Z,98301.00
2022-07-26T00:48:52.159Z,98311.00
2022-07-26T00:51:20.935Z,98316.00
2022-07-26T00:53:49.159Z,98315.00
2022-07-26T00:56:18.752Z,98323.00
2022-07-26T00:58:46.947Z,98321.00
2022-07-26T01:01:15.385Z,98316.00
2022-07-26T01:03:43.649Z,98311.00
2022-07-26T01:06:11.952Z,98319.00
2022-07-26T01:08:40.125Z,98320.00
2022-07-26T01:11:08.298Z,98315.00
2022-07-26T01:13:37.866Z,98316.00
2022-07-26T01:16:06.458Z,98310.00
2022-07-26T01:18:34.665Z,98319.00
2022-07-26T01:21:13.503Z,98311.00
2022-07-26T01:23:43.856Z,98325.00
2022-07-26T01:26:15.201Z,98323.00
2022-07-26T01:28:44.926Z,98320.00
2022-07-26T01:31:13.281Z,98324.00
2022-07-26T01:33:41.537Z,98329.00
2022-07-26T01:36:10.690Z,98331.00
2022-07-26T01:38:38.935Z,98335.00
2022-07-26T01:41:08.587Z,98336.00
2022-07-26T01:43:37.366Z,98333.00
2022-07-26T01:46:06.013Z,98333.00
2022-07-26T01:48:34.358Z,98326.00
2022-07-26T01:51:02.632Z,98329.00
2022-07-26T01:53:30.809Z,98324.00
2022-07-26T01:55:59.065Z,98338.00
2022-07-26T01:58:28.616Z,98338.00
2022-07-26T02:00:59.584Z,98339.00
2022-07-26T02:03:27.771Z,98332.00
2022-07-26T02:05:55.990Z,98335.00
2022-07-26T02:08:24.177Z,98324.00
2022-07-26T02:11:03.696Z,98315.00
2022-07-26T02:13:35.755Z,98318.00
2022-07-26T02:16:04.773Z,98325.00
2022-07-26T02:18:32.985Z,98319.00
2022-07-26T02:21:01.611Z,98323.00
2022-07-26T02:23:30.122Z,98326.00
2022-07-26T02:25:58.387Z,98318.00
2022-07-26T02:28:26.708Z,98320.00
2022-07-26T02:30:56.308Z,98317.00
2022-07-26T02:33:25.291Z,98329.00
2022-07-26T02:35:53.504Z,98319.00
2022-07-26T02:38:21.697Z,98324.00
2022-07-26T02:40:52.648Z,98330.00
2022-07-26T02:43:20.936Z,98333.00
2022-07-26T02:46:00.921Z,98334.00
2022-07-26T02:48:31.794Z,98337.00
2022-07-26T02:51:00.137Z,98338.00
2022-07-26T02:53:28.330Z,98345.00
2022-07-26T02:55:56.554Z,98352.00
2022-07-26T02:58:26.950Z,98353.00
2022-07-26T03:00:55.193Z,98354.00
2022-07-26T03:03:23.398Z,98353.00
2022-07-26T03:05:52.977Z,98351.00
2022-07-26T03:08:21.584Z,98350.00
2022-07-26T03:10:49.807Z,98351.00
2022-07-26T03:13:17.983Z,98342.00
2022-07-26T03:15:46.185Z,98356.00
2022-07-26T03:18:14.404Z,98355.00
2022-07-26T03:20:42.587Z,98358.00
2022-07-26T03:23:12.913Z,98360.00
2022-07-26T03:25:41.122Z,98352.00
2022-07-26T03:28:09.625Z,98363.00
2022-07-26T03:30:37.813Z,98360.00
2022-07-26T03:33:06.048Z,98354.00
2022-07-26T03:35:36.694Z,98350.00
2022-07-26T03:38:05.201Z,98349.00
2022-07-26T03:40:35.205Z,98345.00
2022-07-26T03:43:03.457Z,98344.00
2022-07-26T03:45:31.676Z,98349.00
2022-07-26T03:47:59.922Z,98355.00
2022-07-26T03:50:28.072Z,98349.00
2022-07-26T03:52:56.605Z,98341.00
2022-07-26T03:55:42.040Z,98344.00
2022-07-26T03:58:11.649Z,98344.00
2022-07-26T04:00:40.012Z,98345.00
2022-07-26T04:03:08.303Z,98348.00
2022-07-26T04:05:36.528Z,98350.00
2022-07-26T04:08:05.737Z,98348.00
2022-07-26T04:10:34.235Z,98353.00
2022-07-26T04:13:02.535Z,98350.00
2022-07-26T04:15:32.151Z,98351.00
2022-07-26T04:18:00.342Z,98353.00
2022-07-26T04:20:29.174Z,98365.00
2022-07-26T04:22:57.364Z,98363.00
2022-07-26T04:25:25.618Z,98370.00
2022-07-26T04:27:54.225Z,98367.00
2022-07-26T04:30:22.445Z,98375.00
2022-07-26T04:32:52.045Z,98382.00
2022-07-26T04:35:20.321Z,98378.00
2022-07-26T04:37:48.602Z,98376.00
2022-07-26T04:40:18.015Z,98383.00
2022-07-26T04:42:49.919Z,98383.00
2022-07-26T04:45:18.138Z,98384.00
2022-07-26T04:47:47.526Z,98387.00
2022-07-26T04:50:18.949Z,98396.00
2022-07-26T04:52:47.264Z,98385.00
2022-07-26T04:55:15.507Z,98385.00
2022-07-26T04:57:43.766Z,98371.00
2022-07-26T05:00:21.938Z,98379.00
2022-07-26T05:02:50.890Z,98372.00
2022-07-26T05:05:20.759Z,98383.00
2022-07-26T05:07:51.555Z,98382.00
2022-07-26T05:10:19.999Z,98377.00
2022-07-26T05:12:48.459Z,98379.00
2022-07-26T05:15:16.762Z,98378.00
2022-07-26T05:17:44.983Z,98373.00
2022-07-26T05:20:15.429Z,98377.00
2022-07-26T05:22:45.565Z,98377.00
2022-07-26T05:25:13.770Z,98382.00
2022-07-26T05:27:41.990Z,98389.00
2022-07-26T05:30:11.600Z,98396.00
2022-07-26T05:32:39.943Z,98396.00
2022-07-26T05:35:09.260Z,98398.00
2022-07-26T05:37:37.461Z,98404.00
2022-07-26T05:40:08.226Z,98400.00
2022-07-26T05:42:36.603Z,98407.00
2022-07-26T05:45:05.602Z,98405.00
2022-07-26T05:47:34.207Z,98403.00
2022-07-26T05:50:02.459Z,98404.00
2022-07-26T05:52:30.614Z,98405.00
2022-07-26T05:54:59.290Z,98399.00
2022-07-26T05:57:28.867Z,98402.00
2022-07-26T05:59:57.076Z,98413.00
2022-07-26T06:02:25.416Z,98408.00
2022-07-26T06:04:53.705Z,98404.00
2022-07-26T06:07:21.927Z,98402.00
2022-07-26T06:09:50.171Z,98394.00
2022-07-26T06:12:18.590Z,98406.00
2022-07-26T06:14:48.275Z,98397.00
2022-07-26T06:17:16.619Z,98410.00
2022-07-26T06:19:47.727Z,98400.00
2022-07-26T06:22:16.215Z,98393.00
2022-07-26T06:24:44.455Z,98392.00
2022-07-26T06:27:12.633Z,98390.00
2022-07-26T06:29:41.562Z,98397.00
2022-07-26T06:32:11.235Z,98396.00
2022-07-26T06:34:39.528Z,98393.00
2022-07-26T06:37:07.784Z,98402.00
2022-07-26T06:39:36.033Z,98400.00
2022-07-26T06:42:04.330Z,98414.00
2022-07-26T06:44:32.509Z,98408.00
2022-07-26T06:47:00.703Z,98411.00
2022-07-26T06:49:30.316Z,98409.00
2022-07-26T06:51:58.740Z,98405.00
2022-07-26T06:54:26.994Z,98406.00
2022-07-26T06:56:55.202Z,98406.00
2022-07-26T06:59:23.371Z,98409.00
2022-07-26T07:02:00.081Z,98414.00
2022-07-26T07:04:30.866Z,98420.00
2022-07-26T07:07:04.549Z,98414.00
2022-07-26T07:09:33.694Z,98405.00
2022-07-26T07:12:10.093Z,98410.00
2022-07-26T07:14:39.145Z,98401.00
2022-07-26T07:17:10.441Z,98403.00
2022-07-26T07:19:43.142Z,98400.00
2022-07-26T07:22:12.473Z,98404.00
2022-07-26T07:24:40.982Z,98401.00
2022-07-26T07:27:10.523Z,98406.00
2022-07-26T07:29:43.124Z,98403.00
2022-07-26T07:32:15.857Z,98406.00
2022-07-26T07:34:48.309Z,98394.00
2022-07-26T07:37:16.711Z,98403.00
2022-07-26T07:39:50.508Z,98412.00
2022-07-26T07:42:19.365Z,98407.00
2022-07-26T07:44:47.673Z,98396.00
2022-07-26T07:47:15.875Z,98400.00
2022-07-26T07:49:44.067Z,98404.00
2022-07-26T07:52:13.733Z,98405.00
2022-07-26T07:54:42.118Z,98401.00
2022-07-26T07:57:10.765Z,98408.00
2022-07-26T07:59:39.470Z,98401.00
2022-07-26T08:02:09.402Z,98392.00
2022-07-26T08:04:37.663Z,98397.00
2022-07-26T08:07:05.918Z,98394.00
2022-07-26T08:09:35.478Z,98387.00
2022-07-26T08:12:03.698Z,98396.00
2022-07-26T08:14:33.672Z,98393.00
2022-07-26T08:17:02.636Z,98390.00
2022-07-26T08:19:41.554Z,98391.00
2022-07-26T08:22:10.662Z,98402.00
2022-07-26T08:24:40.656Z,98400.00
2022-07-26T08:27:08.925Z,98389.00
2022-07-26T08:29:37.120Z,98396.00
2022-07-26T08:32:05.932Z,98395.00
2022-07-26T08:34:34.297Z,98394.00
2022-07-26T08:37:18.361Z,98397.00
2022-07-26T08:39:48.606Z,98404.00
2022-07-26T08:42:17.022Z,98408.00
2022-07-26T08:44:51.008Z,98394.00
2022-07-26T08:47:21.429Z,98405.00
2022-07-26T08:50:10.249Z,98409.00
2022-07-26T08:52:39.939Z,98407.00
2022-07-26T08:55:10.613Z,98414.00
2022-07-26T08:57:38.810Z,98413.00
2022-07-26T09:00:16.775Z,98410.00
2022-07-26T09:02:44.992Z,98417.00
2022-07-26T09:05:13.269Z,98411.00
2022-07-26T09:07:41.963Z,98409.00
2022-07-26T09:10:12.447Z,98423.00
2022-07-26T09:12:40.838Z,98407.00
2022-07-26T09:15:18.322Z,98415.00
2022-07-26T09:17:47.520Z,98403.00
2022-07-26T09:20:17.323Z,98408.00
2022-07-26T09:23:02.831Z,98407.00
2022-07-26T09:25:33.493Z,98407.00
2022-07-26T09:28:01.809Z,98394.00
2022-07-26T09:30:30.185Z,98400.00
2022-07-26T09:33:02.884Z,98396.00
2022-07-26T09:35:49.864Z,98402.00
2022-07-26T09:38:20.130Z,98407.00
2022-07-26T09:40:51.518Z,98412.00
2022-07-26T09:43:24.337Z,98401.00
2022-07-26T09:46:06.250Z,98399.00
2022-07-26T09:49:07.089Z,98401.00
2022-07-26T09:51:39.091Z,98399.00
2022-07-26T09:54:07.442Z,98406.00
2022-07-26T09:56:47.566Z,98399.00
2022-07-26T09:59:16.620Z,98409.00
2022-07-26T10:01:45.369Z,98407.00
2022-07-26T10:04:14.111Z,98408.00
2022-07-26T10:06:42.839Z,98404.00
2022-07-26T10:09:11.463Z,98399.00
2022-07-26T10:11:42.321Z,98399.00
2022-07-26T10:14:42.528Z,98396.00
2022-07-26T10:17:41.679Z,98399.00
2022-07-26T10:20:17.343Z,98398.00
2022-07-26T10:22:48.228Z,98386.00
2022-07-26T10:25:52.758Z,98399.00
2022-07-26T10:28:27.632Z,98392.00
2022-07-26T10:31:40.674Z,98407.00
2022-07-26T10:34:10.753Z,98391.00
2022-07-26T10:36:39.697Z,98400.00
2022-07-26T10:39:15.955Z,98395.00
2022-07-26T10:41:45.887Z,98405.00
2022-07-26T10:44:22.385Z,98404.00
2022-07-26T10:47:04.335Z,98411.00
2022-07-26T10:49:37.866Z,98417.00
2022-07-26T10:52:17.174Z,98418.00
2022-07-26T10:55:15.237Z,98409.00
2022-07-26T10:57:44.144Z,98413.00
2022-07-26T11:00:24.211Z,98410.00
2022-07-26T11:02:58.703Z,98418.00
2022-07-26T11:05:31.354Z,98412.00
2022-07-26T11:08:01.624Z,98412.00
2022-07-26T11:10:31.254Z,98416.00
2022-07-26T11:13:10.296Z,98417.00
2022-07-26T11:15:39.381Z,98403.00
2022-07-26T11:18:09.266Z,98400.00
2022-07-26T11:20:38.916Z,98401.00
2022-07-26T11:23:26.560Z,98394.00
2022-07-26T11:26:11.857Z,98400.00
2022-07-26T11:29:06.684Z,98393.00
2022-07-26T11:31:58.019Z,98398.00
2022-07-26T11:34:28.718Z,98395.00
2022-07-26T11:36:59.523Z,98384.00
2022-07-26T11:39:28.753Z,98398.00
2022-07-26T11:41:58.600Z,98383.00
2022-07-26T11:44:27.060Z,98392.00
2022-07-26T11:46:56.187Z,98378.00
2022-07-26T11:49:41.571Z,98390.00
2022-07-26T11:52:14.914Z,98394.00
2022-07-26T11:54:47.777Z,98379.00
2022-07-26T11:57:15.964Z,98391.00
2022-07-26T11:59:45.948Z,98401.00
2022-07-26T12:02:14.882Z,98395.00
2022-07-26T12:04:44.803Z,98382.00
2022-07-26T12:07:15.466Z,98382.00
2022-07-26T12:09:44.334Z,98393.00
2022-07-26T12:12:23.008Z,98396.00
2022-07-26T12:14:57.461Z,98405.00
2022-07-26T12:17:25.633Z,98400.00
2022-07-26T12:19:53.797Z,98396.00
2022-07-26T12:22:24.253Z,98397.00
2022-07-26T12:24:57.329Z,98391.00
2022-07-26T12:27:26.618Z,98397.00
2022-07-26T12:29:56.251Z,98396.00
2022-07-26T12:32:25.155Z,98392.00
2022-07-26T12:35:00.482Z,98381.00
2022-07-26T12:37:39.396Z,98380.00
2022-07-26T12:40:10.226Z,98373.00
2022-07-26T12:42:39.761Z,98378.00
2022-07-26T12:45:09.676Z,98376.00
2022-07-26T12:47:38.163Z,98397.00
2022-07-26T12:50:07.182Z,98373.00
2022-07-26T12:52:40.281Z,98378.00
2022-07-26T12:55:10.396Z,98365.00
2022-07-26T12:57:38.527Z,98369.00
2022-07-26T13:00:15.128Z,98373.00
2022-07-26T13:02:44.008Z,98375.00
2022-07-26T13:05:12.410Z,98370.00
2022-07-26T13:07:42.078Z,98359.00
2022-07-26T13:13:00.539Z,98368.00
2022-07-26T13:15:37.313Z,98357.00
2022-07-26T13:18:07.410Z,98350.00
2022-07-26T13:20:35.751Z,98366.00
2022-07-26T13:23:05.308Z,98363.00
2022-07-26T13:25:38.327Z,98366.00
2022-07-26T13:28:07.892Z,98366.00
2022-07-26T13:30:37.617Z,98371.00
2022-07-26T13:33:05.875Z,98370.00
2022-07-26T13:35:34.068Z,98373.00
2022-07-26T13:38:02.526Z,98367.00
2022-07-26T13:40:32.258Z,98356.00
2022-07-26T13:43:00.593Z,98369.00
2022-07-26T13:45:29.592Z,98369.00
2022-07-26T13:47:59.325Z,98365.00
2022-07-26T13:50:28.351Z,98363.00
2022-07-26T13:52:56.873Z,98351.00
2022-07-26T13:55:25.315Z,98361.00
2022-07-26T13:57:57.659Z,98365.00
2022-07-26T14:00:26.829Z,98355.00
2022-07-26T14:02:55.384Z,98360.00
2022-07-26T14:05:23.984Z,98371.00
2022-07-26T14:07:52.354Z,98360.00
2022-07-26T14:10:20.557Z,98372.00
2022-07-26T14:12:48.933Z,98369.00
2022-07-26T14:15:22.507Z,98369.00
2022-07-26T14:17:52.071Z,98376.00
2022-07-26T14:20:20.981Z,98374.00
2022-07-26T14:22:54.001Z,98386.00
2022-07-26T14:25:22.309Z,98383.00
2022-07-26T14:27:51.149Z,98383.00
2022-07-26T14:30:20.860Z,98377.00
2022-07-26T14:32:49.167Z,98386.00
2022-07-26T14:35:17.743Z,98388.00
2022-07-26T14:37:49.032Z,98386.00
2022-07-26T14:40:17.651Z,98386.00
2022-07-26T14:42:46.193Z,98389.00
2022-07-26T14:45:14.605Z,98389.00
2022-07-26T14:47:44.171Z,98388.00
2022-07-26T14:50:13.560Z,98390.00
2022-07-26T14:52:42.878Z,98394.00
2022-07-26T14:55:11.299Z,98398.00
2022-07-26T14:57:40.285Z,98398.00
2022-07-26T15:00:10.366Z,98400.00
2022-07-26T15:02:40.101Z,98397.00
2022-07-26T15:05:10.757Z,98394.00
2022-07-26T15:07:39.021Z,98395.00
2022-07-26T15:10:07.803Z,98390.00
2022-07-26T15:12:35.968Z,98393.00
2022-07-26T15:15:05.121Z,98400.00
2022-07-26T15:17:33.370Z,98396.00
2022-07-26T15:20:01.565Z,98394.00
2022-07-26T15:22:31.169Z,98393.00
2022-07-26T15:24:59.352Z,98389.00
2022-07-26T15:27:27.678Z,98397.00
2022-07-26T15:30:01.058Z,98392.00
2022-07-26T15:32:31.514Z,98393.00
2022-07-26T15:34:59.770Z,98398.00
2022-07-26T15:37:28.004Z,98394.00
2022-07-26T15:39:57.616Z,98386.00
2022-07-26T15:42:25.799Z,98403.00
2022-07-26T15:44:53.965Z,98390.00
2022-07-26T15:47:43.868Z,98394.00
2022-07-26T15:50:15.136Z,98402.00
2022-07-26T15:52:44.602Z,98402.00
2022-07-26T15:55:14.581Z,98402.00
2022-07-26T15:57:45.281Z,98394.00
2022-07-26T16:00:14.924Z,98392.00
2022-07-26T16:02:43.123Z,98403.00
2022-07-26T16:05:11.631Z,98400.00
2022-07-26T16:07:41.570Z,98390.00
2022-07-26T16:10:10.823Z,98394.00
2022-07-26T16:12:40.346Z,98394.00
2022-07-26T16:15:09.714Z,98386.00
2022-07-26T16:17:38.231Z,98399.00
2022-07-26T16:20:07.873Z,98393.00
2022-07-26T16:22:36.106Z,98396.00
2022-07-26T16:25:06.056Z,98388.00
2022-07-26T16:27:35.070Z,98395.00
2022-07-26T16:30:05.106Z,98388.00
2022-07-26T16:32:34.288Z,98385.00
2022-07-26T16:35:02.946Z,98380.00
2022-07-26T16:37:31.126Z,98391.00
2022-07-26T16:39:59.327Z,98389.00
2022-07-26T16:42:27.886Z,98390.00
2022-07-26T16:44:56.213Z,98380.00
2022-07-26T16:47:25.810Z,98387.00
2022-07-26T16:49:54.005Z,98393.00
2022-07-26T16:52:22.911Z,98393.00
2022-07-26T16:54:51.348Z,98386.00
2022-07-26T16:57:19.526Z,98386.00
2022-07-26T16:59:48.226Z,98388.00
2022-07-26T17:02:16.452Z,98396.00
2022-07-26T17:04:46.161Z,98391.00
2022-07-26T17:07:25.035Z,98392.00
2022-07-26T17:09:54.674Z,98384.00
2022-07-26T17:12:25.901Z,98386.00
2022-07-26T17:14:54.127Z,98388.00
2022-07-26T17:17:22.325Z,98391.00
2022-07-26T17:19:52.077Z,98389.00
2022-07-26T17:22:20.441Z,98388.00
2022-07-26T17:24:53.860Z,98390.00
2022-07-26T17:27:22.037Z,98393.00
2022-07-26T17:29:52.029Z,98395.00
2022-07-26T17:32:20.422Z,98393.00
2022-07-26T17:34:49.003Z,98395.00
2022-07-26T17:37:18.546Z,98392.00
2022-07-26T17:39:52.145Z,98394.00
2022-07-26T17:42:21.104Z,98395.00
2022-07-26T17:44:49.372Z,98397.00
2022-07-26T17:47:18.011Z,98410.00
2022-07-26T17:50:14.150Z,98397.00
2022-07-26T17:52:49.220Z,98404.00
2022-07-26T17:55:18.589Z,98404.00
2022-07-26T17:57:47.881Z,98409.00
2022-07-26T18:00:16.935Z,98410.00
2022-07-26T18:02:45.248Z,98413.00
2022-07-26T18:05:13.512Z,98413.00
2022-07-26T18:07:41.725Z,98420.00
2022-07-26T18:10:12.151Z,98414.00
2022-07-26T18:12:40.346Z,98417.00
2022-07-26T18:15:09.367Z,98410.00
2022-07-26T18:17:37.576Z,98411.00
2022-07-26T18:20:06.649Z,98407.00
2022-07-26T18:22:34.797Z,98412.00
2022-07-26T18:25:03.328Z,98418.00
2022-07-26T18:27:32.861Z,98395.00
2022-07-26T18:30:01.024Z,98404.00
2022-07-26T18:32:29.199Z,98402.00
2022-07-26T18:34:57.378Z,98405.00
2022-07-26T18:37:25.557Z,98409.00
2022-07-26T18:39:57.572Z,98411.00
2022-07-26T18:42:29.068Z,98406.00
2022-07-26T18:44:58.741Z,98412.00
2022-07-26T18:47:26.945Z,98410.00
2022-07-26T18:49:55.067Z,98415.00
2022-07-26T18:52:31.647Z,98411.00
2022-07-26T18:55:02.576Z,98415.00
2022-07-26T18:57:30.803Z,98420.00
2022-07-26T19:00:00.302Z,98422.00
2022-07-26T19:02:28.543Z,98420.00
2022-07-26T19:04:56.675Z,98428.00
2022-07-26T19:07:24.816Z,98428.00
2022-07-26T19:09:58.027Z,98425.00
2022-07-26T19:12:27.564Z,98434.00
2022-07-26T19:14:55.982Z,98437.00
2022-07-26T19:17:25.528Z,98442.00
2022-07-26T19:19:54.295Z,98444.00
2022-07-26T19:22:25.003Z,98447.00
2022-07-26T19:24:53.266Z,98446.00
2022-07-26T19:27:21.477Z,98455.00
2022-07-26T19:29:49.850Z,98452.00
2022-07-26T19:32:18.076Z,98448.00
2022-07-26T19:34:47.612Z,98442.00
2022-07-26T19:37:19.870Z,98460.00
2022-07-26T19:39:48.303Z,98457.00
2022-07-26T19:42:16.589Z,98456.00
2022-07-26T19:44:45.732Z,98455.00
2022-07-26T19:47:14.058Z,98456.00
2022-07-26T19:49:42.410Z,98462.00
2022-07-26T19:52:12.129Z,98458.00
2022-07-26T19:54:40.613Z,98466.00
2022-07-26T19:57:08.932Z,98463.00
2022-07-26T19:59:37.159Z,98462.00
2022-07-26T20:02:05.821Z,98465.00
2022-07-26T20:04:34.123Z,98476.00
2022-07-26T20:07:02.357Z,98475.00
2022-07-26T20:09:32.054Z,98474.00
2022-07-26T20:12:00.368Z,98478.00
2022-07-26T20:14:28.601Z,98484.00
2022-07-26T20:16:57.054Z,98491.00
2022-07-26T20:19:28.155Z,98488.00
2022-07-26T20:21:56.444Z,98492.00
2022-07-26T20:24:24.596Z,98492.00
2022-07-26T20:26:54.147Z,98493.00
2022-07-26T20:29:22.308Z,98499.00
2022-07-26T20:31:50.501Z,98496.00
2022-07-26T20:34:18.637Z,98486.00
2022-07-26T20:36:49.576Z,98489.00
2022-07-26T20:39:17.749Z,98504.00
2022-07-26T20:41:45.937Z,98501.00
2022-07-26T20:44:15.759Z,98509.00
2022-07-26T20:46:46.439Z,98509.00
2022-07-26T20:49:14.981Z,98508.00
2022-07-26T20:51:43.859Z,98518.00
2022-07-26T20:54:12.117Z,98511.00
2022-07-26T20:56:40.789Z,98521.00
2022-07-26T20:59:10.067Z,98513.00
2022-07-26T21:01:39.973Z,98506.00
2022-07-26T21:04:12.400Z,98510.00
2022-07-26T21:06:40.576Z,98519.00
2022-07-26T21:09:10.117Z,98507.00
2022-07-26T21:11:39.845Z,98511.00
2022-07-26T21:14:08.099Z,98514.00
2022-07-26T21:16:36.551Z,98515.00
2022-07-26T21:19:06.623Z,98516.00
2022-07-26T21:21:37.104Z,98511.00
2022-07-26T21:24:06.437Z,98513.00
2022-07-26T21:26:34.665Z,98507.00
2022-07-26T21:29:02.831Z,98514.00
2022-07-26T21:31:31.002Z,98515.00
2022-07-26T21:33:59.197Z,98519.00
2022-07-26T21:36:28.803Z,98511.00
2022-07-26T21:38:56.970Z,98521.00
2022-07-26T21:41:25.102Z,98517.00
2022-07-26T21:43:53.327Z,98527.00
2022-07-26T21:46:21.645Z,98524.00
2022-07-26T21:48:50.050Z,98524.00
2022-07-26T21:51:18.332Z,98527.00
2022-07-26T21:53:47.887Z,98530.00
2022-07-26T21:56:16.069Z,98531.00
2022-07-26T21:58:44.705Z,98534.00
2022-07-26T22:01:15.202Z,98529.00
2022-07-26T22:03:43.489Z,98534.00
2022-07-26T22:06:11.908Z,98526.00
2022-07-26T22:08:40.079Z,98525.00
2022-07-26T22:11:09.617Z,98508.00
2022-07-26T22:13:37.811Z,98515.00
2022-07-26T22:16:06.189Z,98512.00
2022-07-26T22:18:34.537Z,98515.00
2022-07-26T22:21:03.146Z,98512.00
2022-07-26T22:23:33.946Z,98522.00
2022-07-26T22:26:02.944Z,98521.00
2022-07-26T22:28:32.900Z,98520.00
2022-07-26T22:31:01.082Z,98514.00
2022-07-26T22:33:29.255Z,98510.00
2022-07-26T22:35:57.448Z,98519.00
2022-07-26T22:38:25.620Z,98514.00
2022-07-26T22:40:53.748Z,98522.00
2022-07-26T22:43:24.708Z,98520.00
2022-07-26T22:45:54.248Z,98514.00
2022-07-26T22:48:22.517Z,98525.00
2022-07-26T22:50:50.906Z,98520.00
2022-07-26T22:53:19.111Z,98529.00
2022-07-26T22:55:47.213Z,98520.00
2022-07-26T22:58:15.460Z,98521.00
2022-07-26T23:00:43.844Z,98524.00
2022-07-26T23:03:20.390Z,98510.00
2022-07-26T23:05:50.043Z,98513.00
2022-07-26T23:08:45.188Z,98522.00
2022-07-26T23:11:06.738Z,98511.00
2022-07-26T23:13:34.995Z,98517.00
2022-07-26T23:16:03.239Z,98521.00
2022-07-26T23:18:32.933Z,98518.00
2022-07-26T23:21:01.110Z,98515.00
2022-07-26T23:23:30.203Z,98519.00
2022-07-26T23:25:59.502Z,98528.00
2022-07-26T23:28:37.582Z,98521.00
2022-07-26T23:31:08.771Z,98526.00
2022-07-26T23:33:52.742Z,98516.00
2022-07-26T23:36:26.037Z,98510.00
2022-07-26T23:38:54.425Z,98515.00
2022-07-26T23:41:22.691Z,98515.00
2022-07-26T23:43:50.921Z,98514.00
2022-07-26T23:46:19.248Z,98507.00
2022-07-26T23:48:48.859Z,98512.00
2022-07-26T23:51:16.985Z,98513.00
2022-07-26T23:53:45.154Z,98513.00
2022-07-26T23:56:13.395Z,98521.00
2022-07-26T23:58:41.567Z,98513.00
